sensor_id;sensor_type;location;lat;lon;timestamp;pressure;altitude;pressure_sealevel;temperature;humidity
30302;BME280;17111;52.130;5.028;2023-07-29T00:00:07;100818.41;;;23.77;55.11
30302;BME280;17111;52.130;5.028;2023-07-29T00:02:33;100808.59;;;23.76;55.65
30302;BME280;17111;52.130;5.028;2023-07-29T00:05:00;100805.88;;;23.76;55.64
30302;BME280;17111;52.130;5.028;2023-07-29T00:07:27;100801.50;;;23.75;55.36
30302;BME280;17111;52.130;5.028;2023-07-29T00:09:53;100804.22;;;23.75;55.40
30302;BME280;17111;52.130;5.028;2023-07-29T00:12:20;100797.97;;;23.74;55.10
30302;BME280;17111;52.130;5.028;2023-07-29T00:14:47;100790.06;;;23.73;55.66
30302;BME280;17111;52.130;5.028;2023-07-29T00:17:13;100790.06;;;23.73;55.53
30302;BME280;17111;52.130;5.028;2023-07-29T00:19:40;100790.22;;;23.71;55.91
30302;BME280;17111;52.130;5.028;2023-07-29T00:22:06;100792.09;;;23.71;55.71
30302;BME280;17111;52.130;5.028;2023-07-29T00:24:34;100801.25;;;23.70;55.01
30302;BME280;17111;52.130;5.028;2023-07-29T00:27:01;100795.00;;;23.69;55.41
30302;BME280;17111;52.130;5.028;2023-07-29T00:29:28;100794.19;;;23.69;55.76
30302;BME280;17111;52.130;5.028;2023-07-29T00:31:54;100789.78;;;23.68;55.22
30302;BME280;17111;52.130;5.028;2023-07-29T00:34:21;100788.09;;;23.67;55.39
30302;BME280;17111;52.130;5.028;2023-07-29T00:36:47;100783.72;;;23.66;55.23
30302;BME280;17111;52.130;5.028;2023-07-29T00:39:14;100781.03;;;23.66;55.47
30302;BME280;17111;52.130;5.028;2023-07-29T00:41:41;100784.75;;;23.64;55.86
30302;BME280;17111;52.130;5.028;2023-07-29T00:44:07;100780.34;;;23.63;55.82
30302;BME280;17111;52.130;5.028;2023-07-29T00:46:35;100778.66;;;23.62;55.20
30302;BME280;17111;52.130;5.028;2023-07-29T00:49:04;100783.25;;;23.62;55.42
30302;BME280;17111;52.130;5.028;2023-07-29T00:51:31;100778.03;;;23.60;55.62
30302;BME280;17111;52.130;5.028;2023-07-29T00:53:58;100768.22;;;23.59;55.39
30302;BME280;17111;52.130;5.028;2023-07-29T00:56:24;100771.13;;;23.58;55.34
30302;BME280;17111;52.130;5.028;2023-07-29T00:58:51;100770.28;;;23.57;55.56
30302;BME280;17111;52.130;5.028;2023-07-29T01:01:22;100771.34;;;23.56;55.71
30302;BME280;17111;52.130;5.028;2023-07-29T01:03:49;100765.09;;;23.56;55.23
30302;BME280;17111;52.130;5.028;2023-07-29T01:09:03;100770.03;;;23.52;55.49
30302;BME280;17111;52.130;5.028;2023-07-29T01:11:38;100770.03;;;23.52;55.44
30302;BME280;17111;52.130;5.028;2023-07-29T01:14:21;100771.25;;;23.50;56.10
30302;BME280;17111;52.130;5.028;2023-07-29T01:16:58;100767.72;;;23.49;55.80
30302;BME280;17111;52.130;5.028;2023-07-29T01:22:00;100761.63;;;23.47;55.70
30302;BME280;17111;52.130;5.028;2023-07-29T01:24:27;100765.19;;;23.48;55.93
30302;BME280;17111;52.130;5.028;2023-07-29T01:26:54;100751.03;;;23.46;55.57
30302;BME280;17111;52.130;5.028;2023-07-29T01:29:21;100751.22;;;23.44;55.84
30302;BME280;17111;52.130;5.028;2023-07-29T01:31:50;100746.00;;;23.43;55.36
30302;BME280;17111;52.130;5.028;2023-07-29T01:34:26;100754.09;;;23.43;55.48
30302;BME280;17111;52.130;5.028;2023-07-29T01:36:57;100754.31;;;23.41;55.98
30302;BME280;17111;52.130;5.028;2023-07-29T01:39:29;100752.44;;;23.42;55.43
30302;BME280;17111;52.130;5.028;2023-07-29T01:41:58;100748.91;;;23.41;55.37
30302;BME280;17111;52.130;5.028;2023-07-29T01:44:26;100748.25;;;23.39;55.76
30302;BME280;17111;52.130;5.028;2023-07-29T01:46:57;100744.69;;;23.38;56.11
30302;BME280;17111;52.130;5.028;2023-07-29T01:49:24;100747.41;;;23.38;55.58
30302;BME280;17111;52.130;5.028;2023-07-29T01:51:50;100748.44;;;23.37;55.42
30302;BME280;17111;52.130;5.028;2023-07-29T01:54:17;100756.75;;;23.36;55.98
30302;BME280;17111;52.130;5.028;2023-07-29T01:56:44;100746.94;;;23.35;56.19
30302;BME280;17111;52.130;5.028;2023-07-29T01:59:11;100752.34;;;23.35;55.78
30302;BME280;17111;52.130;5.028;2023-07-29T02:01:39;100741.75;;;23.33;55.51
30302;BME280;17111;52.130;5.028;2023-07-29T02:04:06;100736.31;;;23.33;55.95
30302;BME280;17111;52.130;5.028;2023-07-29T02:06:33;100747.34;;;23.32;55.90
30302;BME280;17111;52.130;5.028;2023-07-29T02:09:00;100730.25;;;23.31;55.71
30302;BME280;17111;52.130;5.028;2023-07-29T02:11:26;100737.53;;;23.31;55.51
30302;BME280;17111;52.130;5.028;2023-07-29T02:13:54;100730.47;;;23.30;55.73
30302;BME280;17111;52.130;5.028;2023-07-29T02:16:21;100736.69;;;23.30;55.93
30302;BME280;17111;52.130;5.028;2023-07-29T02:18:49;100734.19;;;23.29;56.02
30302;BME280;17111;52.130;5.028;2023-07-29T02:21:21;100723.38;;;23.29;55.52
30302;BME280;17111;52.130;5.028;2023-07-29T02:23:48;100729.81;;;23.28;55.81
30302;BME280;17111;52.130;5.028;2023-07-29T02:26:15;100731.50;;;23.29;56.03
30302;BME280;17111;52.130;5.028;2023-07-29T02:28:42;100734.38;;;23.27;56.04
30302;BME280;17111;52.130;5.028;2023-07-29T02:31:13;100728.13;;;23.27;56.25
30302;BME280;17111;52.130;5.028;2023-07-29T02:33:40;100723.75;;;23.26;55.73
30302;BME280;17111;52.130;5.028;2023-07-29T02:36:07;100727.50;;;23.25;56.27
30302;BME280;17111;52.130;5.028;2023-07-29T02:38:34;100724.78;;;23.25;55.61
30302;BME280;17111;52.130;5.028;2023-07-29T02:41:00;100733.94;;;23.24;56.02
30302;BME280;17111;52.130;5.028;2023-07-29T02:43:27;100716.03;;;23.23;55.96
30302;BME280;17111;52.130;5.028;2023-07-29T02:45:53;100719.75;;;23.22;55.90
30302;BME280;17111;52.130;5.028;2023-07-29T02:48:20;100720.78;;;23.21;56.02
30302;BME280;17111;52.130;5.028;2023-07-29T02:50:47;100720.78;;;23.21;55.98
30302;BME280;17111;52.130;5.028;2023-07-29T02:53:13;100714.56;;;23.20;56.24
30302;BME280;17111;52.130;5.028;2023-07-29T02:55:40;100716.44;;;23.20;56.02
30302;BME280;17111;52.130;5.028;2023-07-29T02:58:07;100708.50;;;23.18;56.00
30302;BME280;17111;52.130;5.028;2023-07-29T03:00:34;100707.44;;;23.19;56.03
30302;BME280;17111;52.130;5.028;2023-07-29T03:03:00;100714.72;;;23.19;56.50
30302;BME280;17111;52.130;5.028;2023-07-29T03:05:28;100703.28;;;23.17;56.51
30302;BME280;17111;52.130;5.028;2023-07-29T03:07:54;100701.59;;;23.15;56.28
30302;BME280;17111;52.130;5.028;2023-07-29T03:10:21;100696.19;;;23.15;56.42
30302;BME280;17111;52.130;5.028;2023-07-29T03:12:48;100700.75;;;23.15;56.32
30302;BME280;17111;52.130;5.028;2023-07-29T03:15:15;100702.44;;;23.16;56.14
30302;BME280;17111;52.130;5.028;2023-07-29T03:17:41;100705.31;;;23.14;56.00
30302;BME280;17111;52.130;5.028;2023-07-29T03:20:08;100704.50;;;23.14;56.42
30302;BME280;17111;52.130;5.028;2023-07-29T03:22:35;100702.63;;;23.14;56.52
30302;BME280;17111;52.130;5.028;2023-07-29T03:25:01;100696.59;;;23.12;55.91
30302;BME280;17111;52.130;5.028;2023-07-29T03:27:28;100703.84;;;23.12;55.98
30302;BME280;17111;52.130;5.028;2023-07-29T03:29:55;100701.16;;;23.12;56.20
30302;BME280;17111;52.130;5.028;2023-07-29T03:32:21;100708.59;;;23.10;56.04
30302;BME280;17111;52.130;5.028;2023-07-29T03:34:48;100700.28;;;23.11;56.20
30302;BME280;17111;52.130;5.028;2023-07-29T03:37:14;100696.97;;;23.09;56.56
30302;BME280;17111;52.130;5.028;2023-07-29T03:39:41;100707.78;;;23.09;56.31
30302;BME280;17111;52.130;5.028;2023-07-29T03:42:07;100717.75;;;23.09;56.24
30302;BME280;17111;52.130;5.028;2023-07-29T03:44:34;100729.59;;;23.08;56.35
30302;BME280;17111;52.130;5.028;2023-07-29T03:47:02;100726.03;;;23.07;56.46
30302;BME280;17111;52.130;5.028;2023-07-29T03:49:28;100718.97;;;23.06;55.71
30302;BME280;17111;52.130;5.028;2023-07-29T03:51:55;100718.97;;;23.06;56.34
30302;BME280;17111;52.130;5.028;2023-07-29T03:54:21;100728.94;;;23.06;56.03
30302;BME280;17111;52.130;5.028;2023-07-29T03:56:48;100721.03;;;23.04;56.60
30302;BME280;17111;52.130;5.028;2023-07-29T03:59:15;100728.31;;;23.04;56.19
30302;BME280;17111;52.130;5.028;2023-07-29T04:01:41;100725.78;;;23.02;55.94
30302;BME280;17111;52.130;5.028;2023-07-29T04:04:08;100714.13;;;23.02;56.43
30302;BME280;17111;52.130;5.028;2023-07-29T04:06:35;100706.00;;;23.02;56.39
30302;BME280;17111;52.130;5.028;2023-07-29T04:09:02;100709.75;;;23.01;56.02
30302;BME280;17111;52.130;5.028;2023-07-29T04:11:28;100714.31;;;23.00;56.25
30302;BME280;17111;52.130;5.028;2023-07-29T04:13:55;100724.31;;;23.00;55.98
30302;BME280;17111;52.130;5.028;2023-07-29T04:16:22;100730.72;;;22.99;56.39
30302;BME280;17111;52.130;5.028;2023-07-29T04:18:48;100724.47;;;22.98;56.50
30302;BME280;17111;52.130;5.028;2023-07-29T04:21:15;100719.91;;;22.99;56.06
30302;BME280;17111;52.130;5.028;2023-07-29T04:23:41;100717.41;;;22.97;56.15
30302;BME280;17111;52.130;5.028;2023-07-29T04:26:08;100719.25;;;22.97;55.97
30302;BME280;17111;52.130;5.028;2023-07-29T04:28:34;100727.38;;;22.97;56.11
30302;BME280;17111;52.130;5.028;2023-07-29T04:31:01;100716.72;;;22.95;56.04
30302;BME280;17111;52.130;5.028;2023-07-29T04:33:30;100712.19;;;22.96;55.90
30302;BME280;17111;52.130;5.028;2023-07-29T04:35:59;100708.63;;;22.95;56.35
30302;BME280;17111;52.130;5.028;2023-07-29T04:38:31;100713.41;;;22.93;56.40
30302;BME280;17111;52.130;5.028;2023-07-29T04:41:01;100715.06;;;22.94;55.83
30302;BME280;17111;52.130;5.028;2023-07-29T04:43:31;100712.56;;;22.93;56.29
30302;BME280;17111;52.130;5.028;2023-07-29T04:45:57;100713.41;;;22.93;56.10
30302;BME280;17111;52.130;5.028;2023-07-29T04:48:24;100709.03;;;22.92;56.08
30302;BME280;17111;52.130;5.028;2023-07-29T04:50:50;100700.91;;;22.92;56.16
30302;BME280;17111;52.130;5.028;2023-07-29T04:53:17;100711.72;;;22.92;56.29
30302;BME280;17111;52.130;5.028;2023-07-29T04:55:44;100734.34;;;22.91;56.40
30302;BME280;17111;52.130;5.028;2023-07-29T04:58:10;100733.53;;;22.90;56.36
30302;BME280;17111;52.130;5.028;2023-07-29T05:00:37;100728.13;;;22.90;56.51
30302;BME280;17111;52.130;5.028;2023-07-29T05:03:03;100721.84;;;22.90;56.10
30302;BME280;17111;52.130;5.028;2023-07-29T05:05:30;100721.72;;;22.92;56.44
30302;BME280;17111;52.130;5.028;2023-07-29T05:07:57;100732.53;;;22.92;56.24
30302;BME280;17111;52.130;5.028;2023-07-29T05:10:23;100736.06;;;22.92;55.81
30302;BME280;17111;52.130;5.028;2023-07-29T05:12:50;100736.91;;;22.93;56.17
30302;BME280;17111;52.130;5.028;2023-07-29T05:15:17;100732.53;;;22.92;55.96
30302;BME280;17111;52.130;5.028;2023-07-29T05:17:45;100729.63;;;22.93;56.31
30302;BME280;17111;52.130;5.028;2023-07-29T05:20:11;100736.91;;;22.93;56.07
30302;BME280;17111;52.130;5.028;2023-07-29T05:22:38;100735.03;;;22.93;56.26
30302;BME280;17111;52.130;5.028;2023-07-29T05:25:05;100732.31;;;22.93;56.25
30302;BME280;17111;52.130;5.028;2023-07-29T05:27:32;100732.13;;;22.95;56.40
30302;BME280;17111;52.130;5.028;2023-07-29T05:29:58;100741.25;;;22.94;56.24
30302;BME280;17111;52.130;5.028;2023-07-29T05:32:25;100740.44;;;22.93;56.16
30302;BME280;17111;52.130;5.028;2023-07-29T05:34:52;100730.44;;;22.94;56.05
30302;BME280;17111;52.130;5.028;2023-07-29T05:37:18;100738.56;;;22.94;56.08
30302;BME280;17111;52.130;5.028;2023-07-29T05:39:45;100728.78;;;22.93;55.77
30302;BME280;17111;52.130;5.028;2023-07-29T05:42:11;100725.25;;;22.92;56.10
30302;BME280;17111;52.130;5.028;2023-07-29T05:44:38;100732.31;;;22.93;56.27
30302;BME280;17111;52.130;5.028;2023-07-29T05:47:05;100735.03;;;22.93;56.36
30302;BME280;17111;52.130;5.028;2023-07-29T05:49:31;100736.69;;;22.94;55.93
30302;BME280;17111;52.130;5.028;2023-07-29T05:51:58;100734.81;;;22.95;55.90
30302;BME280;17111;52.130;5.028;2023-07-29T05:54:25;100739.22;;;22.96;56.13
30302;BME280;17111;52.130;5.028;2023-07-29T05:56:51;100737.34;;;22.96;56.21
30302;BME280;17111;52.130;5.028;2023-07-29T05:59:18;100726.53;;;22.96;55.89
30302;BME280;17111;52.130;5.028;2023-07-29T06:01:45;100731.75;;;22.98;56.31
30302;BME280;17111;52.130;5.028;2023-07-29T06:04:11;100723.44;;;22.99;55.98
30302;BME280;17111;52.130;5.028;2023-07-29T06:06:38;100729.50;;;23.01;55.61
30302;BME280;17111;52.130;5.028;2023-07-29T06:09:05;100730.34;;;23.02;55.91
30302;BME280;17111;52.130;5.028;2023-07-29T06:11:31;100727.63;;;23.02;55.51
30302;BME280;17111;52.130;5.028;2023-07-29T06:13:58;100729.50;;;23.01;55.63
30302;BME280;17111;52.130;5.028;2023-07-29T06:16:24;100732.00;;;23.03;55.40
30302;BME280;17111;52.130;5.028;2023-07-29T06:18:51;100738.44;;;23.02;55.17
30302;BME280;17111;52.130;5.028;2023-07-29T06:21:19;100735.53;;;23.03;55.46
30302;BME280;17111;52.130;5.028;2023-07-29T06:23:46;100744.53;;;23.04;55.53
30302;BME280;17111;52.130;5.028;2023-07-29T06:26:12;100748.06;;;23.04;55.74
30302;BME280;17111;52.130;5.028;2023-07-29T06:28:39;100749.72;;;23.05;55.49
30302;BME280;17111;52.130;5.028;2023-07-29T06:31:06;100754.94;;;23.07;55.69
30302;BME280;17111;52.130;5.028;2023-07-29T06:33:32;100755.78;;;23.07;55.77
30302;BME280;17111;52.130;5.028;2023-07-29T06:35:59;100749.53;;;23.07;55.15
30302;BME280;17111;52.130;5.028;2023-07-29T06:38:26;100747.66;;;23.07;55.51
30302;BME280;17111;52.130;5.028;2023-07-29T06:40:52;100750.38;;;23.07;55.81
30302;BME280;17111;52.130;5.028;2023-07-29T06:43:19;100756.63;;;23.08;55.42
30302;BME280;17111;52.130;5.028;2023-07-29T06:45:45;100751.22;;;23.08;55.73
30302;BME280;17111;52.130;5.028;2023-07-29T06:48:12;100752.06;;;23.08;55.77
30302;BME280;17111;52.130;5.028;2023-07-29T06:50:38;100748.31;;;23.09;55.57
30302;BME280;17111;52.130;5.028;2023-07-29T06:53:06;100752.06;;;23.08;55.57
30302;BME280;17111;52.130;5.028;2023-07-29T06:55:32;100759.13;;;23.09;55.52
30302;BME280;17111;52.130;5.028;2023-07-29T06:57:59;100752.06;;;23.08;54.86
30302;BME280;17111;52.130;5.028;2023-07-29T07:00:25;100753.94;;;23.08;55.61
30302;BME280;17111;52.130;5.028;2023-07-29T07:02:52;100756.44;;;23.09;55.42
30302;BME280;17111;52.130;5.028;2023-07-29T07:05:19;100769.94;;;23.09;55.40
30302;BME280;17111;52.130;5.028;2023-07-29T07:07:45;100765.38;;;23.10;55.07
30302;BME280;17111;52.130;5.028;2023-07-29T07:10:12;100754.56;;;23.10;54.98
30302;BME280;17111;52.130;5.028;2023-07-29T07:12:39;100755.41;;;23.10;54.96
30302;BME280;17111;52.130;5.028;2023-07-29T07:15:06;100757.06;;;23.11;55.20
30302;BME280;17111;52.130;5.028;2023-07-29T07:17:33;100755.22;;;23.12;55.34
30302;BME280;17111;52.130;5.028;2023-07-29T07:20:00;100754.34;;;23.11;55.76
30302;BME280;17111;52.130;5.028;2023-07-29T07:22:26;100758.78;;;23.12;55.17
30302;BME280;17111;52.130;5.028;2023-07-29T07:24:53;100753.34;;;23.12;55.41
30302;BME280;17111;52.130;5.028;2023-07-29T07:27:19;100757.72;;;23.13;55.06
30302;BME280;17111;52.130;5.028;2023-07-29T07:29:46;100755.84;;;23.14;55.12
30302;BME280;17111;52.130;5.028;2023-07-29T07:32:13;100757.34;;;23.17;55.01
30302;BME280;17111;52.130;5.028;2023-07-29T07:34:39;100758.19;;;23.17;54.83
30302;BME280;17111;52.130;5.028;2023-07-29T07:37:06;100760.69;;;23.19;55.52
30302;BME280;17111;52.130;5.028;2023-07-29T07:39:33;100755.13;;;23.20;55.38
30302;BME280;17111;52.130;5.028;2023-07-29T07:41:59;100755.75;;;23.22;55.58
30302;BME280;17111;52.130;5.028;2023-07-29T07:44:26;100751.19;;;23.23;55.07
30302;BME280;17111;52.130;5.028;2023-07-29T07:46:53;100756.41;;;23.24;54.92
30302;BME280;17111;52.130;5.028;2023-07-29T07:49:22;100754.53;;;23.25;54.56
30302;BME280;17111;52.130;5.028;2023-07-29T07:51:49;100758.09;;;23.25;54.67
30302;BME280;17111;52.130;5.028;2023-07-29T07:54:16;100762.66;;;23.25;54.86
30302;BME280;17111;52.130;5.028;2023-07-29T07:56:43;100766.41;;;23.24;54.95
30302;BME280;17111;52.130;5.028;2023-07-29T07:59:09;100766.41;;;23.24;55.17
30302;BME280;17111;52.130;5.028;2023-07-29T08:01:38;100772.63;;;23.24;55.31
30302;BME280;17111;52.130;5.028;2023-07-29T08:04:06;100761.63;;;23.26;55.12
30302;BME280;17111;52.130;5.028;2023-07-29T08:06:32;100766.00;;;23.27;55.26
30302;BME280;17111;52.130;5.028;2023-07-29T08:08:59;100765.81;;;23.28;55.09
30302;BME280;17111;52.130;5.028;2023-07-29T08:11:26;100765.63;;;23.30;54.95
30302;BME280;17111;52.130;5.028;2023-07-29T08:13:53;100767.94;;;23.33;55.35
30302;BME280;17111;52.130;5.028;2023-07-29T08:16:19;100770.44;;;23.34;54.84
30302;BME280;17111;52.130;5.028;2023-07-29T08:18:46;100767.56;;;23.36;55.50
30302;BME280;17111;52.130;5.028;2023-07-29T08:21:13;100768.22;;;23.38;54.94
30302;BME280;17111;52.130;5.028;2023-07-29T08:23:40;100773.41;;;23.39;55.17
30302;BME280;17111;52.130;5.028;2023-07-29T08:26:06;100774.28;;;23.40;54.83
30302;BME280;17111;52.130;5.028;2023-07-29T08:28:38;100783.22;;;23.40;54.36
30302;BME280;17111;52.130;5.028;2023-07-29T08:31:06;100784.06;;;23.41;54.35
30302;BME280;17111;52.130;5.028;2023-07-29T08:33:33;100785.72;;;23.42;54.29
30302;BME280;17111;52.130;5.028;2023-07-29T08:36:01;100785.72;;;23.42;54.35
30302;BME280;17111;52.130;5.028;2023-07-29T08:38:28;100786.56;;;23.43;54.46
30302;BME280;17111;52.130;5.028;2023-07-29T08:41:14;100782.00;;;23.43;55.01
30302;BME280;17111;52.130;5.028;2023-07-29T08:44:12;100777.41;;;23.44;54.99
30302;BME280;17111;52.130;5.028;2023-07-29T08:46:44;100778.06;;;23.46;54.40
30302;BME280;17111;52.130;5.028;2023-07-29T08:49:15;100771.81;;;23.45;54.50
30302;BME280;17111;52.130;5.028;2023-07-29T08:51:48;100778.91;;;23.46;54.55
30302;BME280;17111;52.130;5.028;2023-07-29T08:54:16;100785.16;;;23.47;54.58
30302;BME280;17111;52.130;5.028;2023-07-29T08:56:43;100783.09;;;23.49;54.96
30302;BME280;17111;52.130;5.028;2023-07-29T08:59:10;100781.25;;;23.49;54.41
30302;BME280;17111;52.130;5.028;2023-07-29T09:01:41;100783.75;;;23.51;54.98
30302;BME280;17111;52.130;5.028;2023-07-29T09:04:08;100781.88;;;23.51;54.54
30302;BME280;17111;52.130;5.028;2023-07-29T09:06:36;100783.56;;;23.52;54.66
30302;BME280;17111;52.130;5.028;2023-07-29T09:09:07;100786.28;;;23.52;54.61
30302;BME280;17111;52.130;5.028;2023-07-29T09:11:35;100787.94;;;23.53;54.54
30302;BME280;17111;52.130;5.028;2023-07-29T09:14:01;100789.63;;;23.54;54.01
30302;BME280;17111;52.130;5.028;2023-07-29T09:16:28;100782.31;;;23.55;53.89
30302;BME280;17111;52.130;5.028;2023-07-29T09:18:55;100783.81;;;23.57;53.79
30302;BME280;17111;52.130;5.028;2023-07-29T09:21:24;100787.56;;;23.56;53.92
30302;BME280;17111;52.130;5.028;2023-07-29T09:23:53;100794.66;;;23.57;53.92
30302;BME280;17111;52.130;5.028;2023-07-29T09:26:27;100797.34;;;23.57;54.27
30302;BME280;17111;52.130;5.028;2023-07-29T09:28:55;100804.44;;;23.58;54.05
30302;BME280;17111;52.130;5.028;2023-07-29T09:31:24;100797.16;;;23.59;53.79
30302;BME280;17111;52.130;5.028;2023-07-29T09:33:58;100802.56;;;23.59;53.79
30302;BME280;17111;52.130;5.028;2023-07-29T09:36:26;100796.16;;;23.60;54.34
30302;BME280;17111;52.130;5.028;2023-07-29T09:38:54;100788.84;;;23.60;54.34
30302;BME280;17111;52.130;5.028;2023-07-29T09:41:28;100795.28;;;23.59;54.29
30302;BME280;17111;52.130;5.028;2023-07-29T09:43:56;100793.22;;;23.61;54.35
30302;BME280;17111;52.130;5.028;2023-07-29T09:46:25;100798.66;;;23.61;54.67
30302;BME280;17111;52.130;5.028;2023-07-29T09:48:53;100802.19;;;23.62;54.07
30302;BME280;17111;52.130;5.028;2023-07-29T09:51:23;100804.69;;;23.63;54.21
30302;BME280;17111;52.130;5.028;2023-07-29T09:53:51;100814.69;;;23.63;54.30
30302;BME280;17111;52.130;5.028;2023-07-29T09:56:24;100820.94;;;23.63;54.25
30302;BME280;17111;52.130;5.028;2023-07-29T09:58:52;100817.38;;;23.63;54.18
30302;BME280;17111;52.130;5.028;2023-07-29T10:01:19;100814.50;;;23.64;54.20
30302;BME280;17111;52.130;5.028;2023-07-29T10:03:47;100815.50;;;23.63;54.27
30302;BME280;17111;52.130;5.028;2023-07-29T10:06:14;100816.56;;;23.62;54.25
30302;BME280;17111;52.130;5.028;2023-07-29T10:08:42;100816.56;;;23.62;53.81
30302;BME280;17111;52.130;5.028;2023-07-29T10:11:10;100810.50;;;23.60;53.86
30302;BME280;17111;52.130;5.028;2023-07-29T10:13:38;100809.47;;;23.61;54.49
30302;BME280;17111;52.130;5.028;2023-07-29T10:16:05;100805.72;;;23.62;54.17
30302;BME280;17111;52.130;5.028;2023-07-29T10:18:33;100808.25;;;23.64;54.21
30302;BME280;17111;52.130;5.028;2023-07-29T10:21:01;100807.22;;;23.65;54.33
30302;BME280;17111;52.130;5.028;2023-07-29T10:23:32;100813.50;;;23.66;53.93
30302;BME280;17111;52.130;5.028;2023-07-29T10:26:05;100807.06;;;23.67;53.82
30302;BME280;17111;52.130;5.028;2023-07-29T10:28:32;100817.03;;;23.66;54.53
30302;BME280;17111;52.130;5.028;2023-07-29T10:31:02;100804.34;;;23.67;53.71
30302;BME280;17111;52.130;5.028;2023-07-29T10:33:31;100797.06;;;23.67;54.00
30302;BME280;17111;52.130;5.028;2023-07-29T10:35:59;100797.91;;;23.68;54.75
30302;BME280;17111;52.130;5.028;2023-07-29T10:38:27;100810.41;;;23.69;54.64
30302;BME280;17111;52.130;5.028;2023-07-29T10:40:57;100801.25;;;23.70;54.47
30302;BME280;17111;52.130;5.028;2023-07-29T10:43:36;100805.63;;;23.71;54.01
30302;BME280;17111;52.130;5.028;2023-07-29T10:46:31;100812.09;;;23.70;54.60
30302;BME280;17111;52.130;5.028;2023-07-29T10:49:01;100810.00;;;23.72;54.22
30302;BME280;17111;52.130;5.028;2023-07-29T10:54:13;100814.59;;;23.71;54.80
30302;BME280;17111;52.130;5.028;2023-07-29T10:56:42;100801.06;;;23.71;54.67
30302;BME280;17111;52.130;5.028;2023-07-29T11:01:40;100812.72;;;23.72;54.62
30302;BME280;17111;52.130;5.028;2023-07-29T11:04:22;100813.75;;;23.71;54.19
30302;BME280;17111;52.130;5.028;2023-07-29T11:09:42;100809.59;;;23.68;54.56
30302;BME280;17111;52.130;5.028;2023-07-29T11:12:41;100812.63;;;23.65;54.52
30302;BME280;17111;52.130;5.028;2023-07-29T11:15:21;100828.69;;;23.67;53.93
30302;BME280;17111;52.130;5.028;2023-07-29T11:17:50;100829.91;;;23.64;53.99
30302;BME280;17111;52.130;5.028;2023-07-29T11:20:19;100836.53;;;23.61;54.22
30302;BME280;17111;52.130;5.028;2023-07-29T11:22:46;100825.91;;;23.60;54.75
30302;BME280;17111;52.130;5.028;2023-07-29T11:25:15;100824.41;;;23.57;54.48
30302;BME280;17111;52.130;5.028;2023-07-29T11:27:43;100819.84;;;23.58;54.59
30302;BME280;17111;52.130;5.028;2023-07-29T11:30:11;100815.25;;;23.58;55.06
30302;BME280;17111;52.130;5.028;2023-07-29T11:32:41;100822.34;;;23.59;55.08
30302;BME280;17111;52.130;5.028;2023-07-29T11:35:13;100805.94;;;23.61;54.55
30302;BME280;17111;52.130;5.028;2023-07-29T11:37:45;100807.41;;;23.63;54.54
30302;BME280;17111;52.130;5.028;2023-07-29T11:40:19;100815.16;;;23.67;54.76
30302;BME280;17111;52.130;5.028;2023-07-29T11:42:47;100799.38;;;23.70;55.09
30302;BME280;17111;52.130;5.028;2023-07-29T11:45:14;100797.97;;;23.74;54.73
30302;BME280;17111;52.130;5.028;2023-07-29T11:47:44;100804.47;;;23.80;54.66
30302;BME280;17111;52.130;5.028;2023-07-29T11:50:12;100805.75;;;23.84;54.24
30302;BME280;17111;52.130;5.028;2023-07-29T11:52:43;100805.59;;;23.85;53.70
30302;BME280;17111;52.130;5.028;2023-07-29T11:55:12;100800.81;;;23.87;53.41
30302;BME280;17111;52.130;5.028;2023-07-29T11:57:39;100807.09;;;23.88;53.78
30302;BME280;17111;52.130;5.028;2023-07-29T12:00:09;100815.84;;;23.90;53.79
30302;BME280;17111;52.130;5.028;2023-07-29T12:02:41;100816.50;;;23.92;53.39
30302;BME280;17111;52.130;5.028;2023-07-29T12:05:09;100816.50;;;23.92;53.49
30302;BME280;17111;52.130;5.028;2023-07-29T12:07:38;100810.22;;;23.92;53.86
30302;BME280;17111;52.130;5.028;2023-07-29T12:10:06;100807.34;;;23.93;53.68
30302;BME280;17111;52.130;5.028;2023-07-29T12:12:33;100811.91;;;23.93;53.78
30302;BME280;17111;52.130;5.028;2023-07-29T12:14:59;100804.41;;;23.95;53.72
30302;BME280;17111;52.130;5.028;2023-07-29T12:17:27;100799.00;;;23.95;53.27
30302;BME280;17111;52.130;5.028;2023-07-29T12:19:55;100804.41;;;23.95;53.84
30302;BME280;17111;52.130;5.028;2023-07-29T12:22:21;100800.66;;;23.96;53.13
30302;BME280;17111;52.130;5.028;2023-07-29T12:24:50;100796.13;;;23.96;53.41
30302;BME280;17111;52.130;5.028;2023-07-29T12:27:18;100802.38;;;23.97;53.67
30302;BME280;17111;52.130;5.028;2023-07-29T12:29:44;100788.63;;;23.98;53.40
30302;BME280;17111;52.130;5.028;2023-07-29T12:32:13;100797.59;;;23.99;53.32
30302;BME280;17111;52.130;5.028;2023-07-29T12:34:40;100794.69;;;24.00;53.56
30302;BME280;17111;52.130;5.028;2023-07-29T12:37:07;100791.78;;;24.02;53.32
30302;BME280;17111;52.130;5.028;2023-07-29T12:39:35;100787.00;;;24.04;53.27
30302;BME280;17111;52.130;5.028;2023-07-29T12:42:06;100791.00;;;24.08;53.14
30302;BME280;17111;52.130;5.028;2023-07-29T12:44:34;100801.66;;;24.09;53.01
30302;BME280;17111;52.130;5.028;2023-07-29T12:47:03;100796.03;;;24.11;53.62
30302;BME280;17111;52.130;5.028;2023-07-29T12:49:31;100798.56;;;24.12;53.60
30302;BME280;17111;52.130;5.028;2023-07-29T12:52:00;100793.16;;;24.12;53.66
30302;BME280;17111;52.130;5.028;2023-07-29T12:54:27;100793.78;;;24.14;53.14
30302;BME280;17111;52.130;5.028;2023-07-29T12:56:54;100791.91;;;24.15;53.22
30302;BME280;17111;52.130;5.028;2023-07-29T12:59:20;100787.97;;;24.18;53.20
30302;BME280;17111;52.130;5.028;2023-07-29T13:01:47;100795.88;;;24.19;53.24
30302;BME280;17111;52.130;5.028;2023-07-29T13:04:14;100797.59;;;24.20;53.28
30302;BME280;17111;52.130;5.028;2023-07-29T13:06:41;100793.19;;;24.19;53.27